Time;durP1;ratioP1;P1;durP2;ratioP2;P2;SDS_P1;SDS_P2;PMS_P1;PMS_P2;Temp;Humidity;BMP_temperature;BMP_pressure;BME280_temperature;BME280_humidity;BME280_pressure;Samples;Min_cycle;Max_cycle;Signal;HPM_P1;HPM_P2
2023/03/19 00:00:29;;;;;;;1.83;0.47;;;;;;;;;;5003187;28;20120;-48
2023/03/19 00:02:58;;;;;;;5.60;0.40;;;;;;;;;;5002719;28;20045;-47
2023/03/19 00:05:26;;;;;;;2.70;0.23;;;;;;;;;;4999454;28;20574;-46
2023/03/19 00:07:54;;;;;;;2.20;0.20;;;;;;;;;;5005701;28;20057;-46
2023/03/19 00:10:22;;;;;;;4.93;0.40;;;;;;;;;;5004003;28;20056;-46
2023/03/19 00:12:50;;;;;;;3.72;0.60;;;;;;;;;;5002352;28;20532;-47
2023/03/19 00:15:18;;;;;;;5.25;0.40;;;;;;;;;;4997956;28;20474;-46
2023/03/19 00:17:45;;;;;;;4.87;0.57;;;;;;;;;;5003834;28;20045;-47
2023/03/19 00:20:16;;;;;;;3.80;0.40;;;;;;;;;;4998216;28;20759;-46
2023/03/19 00:22:44;;;;;;;2.15;0.30;;;;;;;;;;5008819;28;20069;-46
2023/03/19 00:25:12;;;;;;;5.63;0.30;;;;;;;;;;5018939;28;20033;-47
2023/03/19 00:27:40;;;;;;;3.83;0.47;;;;;;;;;;5001079;28;20083;-47
2023/03/19 00:30:08;;;;;;;3.87;0.40;;;;;;;;;;5011106;28;20049;-47
2023/03/19 00:32:36;;;;;;;2.33;0.32;;;;;;;;;;4990870;28;20065;-46
2023/03/19 00:35:05;;;;;;;3.95;0.63;;;;;;;;;;5008162;28;20057;-48
2023/03/19 00:37:35;;;;;;;3.00;0.50;;;;;;;;;;4999671;28;20129;-48
2023/03/19 00:40:03;;;;;;;3.28;0.35;;;;;;;;;;5005484;28;20099;-47
2023/03/19 00:42:32;;;;;;;3.70;0.40;;;;;;;;;;4990808;28;20535;-48
2023/03/19 00:45:00;;;;;;;4.20;0.50;;;;;;;;;;4998406;28;20064;-47
2023/03/19 00:47:27;;;;;;;4.45;0.30;;;;;;;;;;5006017;28;20049;-46
2023/03/19 00:49:55;;;;;;;1.75;0.20;;;;;;;;;;5007537;28;20042;-47
2023/03/19 00:52:23;;;;;;;2.85;0.30;;;;;;;;;;5005808;28;20120;-46
2023/03/19 00:54:52;;;;;;;2.77;0.30;;;;;;;;;;5003894;28;20141;-48
2023/03/19 00:57:20;;;;;;;4.25;0.43;;;;;;;;;;4996881;28;20042;-46
2023/03/19 00:59:48;;;;;;;2.97;0.40;;;;;;;;;;4997109;28;20100;-45
2023/03/19 01:02:16;;;;;;;3.13;0.38;;;;;;;;;;4995541;28;20053;-46
2023/03/19 01:04:43;;;;;;;2.97;0.43;;;;;;;;;;5001977;28;20042;-46
2023/03/19 01:07:11;;;;;;;2.13;0.30;;;;;;;;;;4994771;28;20061;-45
2023/03/19 01:09:39;;;;;;;3.35;0.30;;;;;;;;;;5005614;28;20578;-47
2023/03/19 01:12:09;;;;;;;4.40;0.40;;;;;;;;;;5008147;28;20120;-46
2023/03/19 01:14:36;;;;;;;4.95;0.80;;;;;;;;;;4994989;28;20084;-47
2023/03/19 01:17:04;;;;;;;3.92;0.30;;;;;;;;;;5006162;28;20399;-48
2023/03/19 01:19:32;;;;;;;2.70;0.50;;;;;;;;;;4988648;28;20444;-47
2023/03/19 01:22:01;;;;;;;2.72;0.30;;;;;;;;;;4995561;28;20113;-46
2023/03/19 01:24:29;;;;;;;4.55;0.60;;;;;;;;;;4997205;28;20583;-48
2023/03/19 01:26:56;;;;;;;3.50;0.70;;;;;;;;;;5003785;28;20124;-46
2023/03/19 01:29:25;;;;;;;3.58;0.90;;;;;;;;;;4996735;28;20038;-47
2023/03/19 01:31:59;;;;;;;4.10;0.73;;;;;;;;;;4998806;28;20042;-46
2023/03/19 01:34:27;;;;;;;3.40;0.50;;;;;;;;;;5008145;28;20111;-46
2023/03/19 01:36:57;;;;;;;5.28;0.40;;;;;;;;;;5007178;28;20095;-46
2023/03/19 01:39:26;;;;;;;4.78;0.70;;;;;;;;;;5005063;28;20072;-46
2023/03/19 01:41:54;;;;;;;2.90;0.40;;;;;;;;;;4998921;28;20552;-46
2023/03/19 01:44:27;;;;;;;2.50;0.30;;;;;;;;;;5001864;28;20116;-47
2023/03/19 01:46:58;;;;;;;4.03;0.40;;;;;;;;;;5004730;28;20138;-47
2023/03/19 01:49:28;;;;;;;4.32;0.32;;;;;;;;;;5004345;28;20471;-47
2023/03/19 01:51:58;;;;;;;2.50;0.30;;;;;;;;;;4991686;28;20091;-48
2023/03/19 01:54:25;;;;;;;3.47;0.43;;;;;;;;;;5010107;28;20099;-46
2023/03/19 01:56:56;;;;;;;3.87;0.50;;;;;;;;;;4994005;28;20029;-46
2023/03/19 01:59:26;;;;;;;2.55;0.30;;;;;;;;;;5011708;28;20133;-45
2023/03/19 02:01:56;;;;;;;2.53;0.35;;;;;;;;;;4988068;28;20138;-46
2023/03/19 02:04:25;;;;;;;2.95;0.30;;;;;;;;;;4994639;28;20042;-46
2023/03/19 02:06:54;;;;;;;2.72;0.32;;;;;;;;;;4990250;28;20038;-47
2023/03/19 02:09:24;;;;;;;3.90;0.50;;;;;;;;;;5000322;28;20496;-47
2023/03/19 02:11:52;;;;;;;2.78;0.25;;;;;;;;;;4999276;28;20033;-47
2023/03/19 02:14:20;;;;;;;2.30;0.25;;;;;;;;;;4989992;28;20049;-46
2023/03/19 02:16:47;;;;;;;2.88;0.40;;;;;;;;;;4999571;28;20124;-49
2023/03/19 02:19:18;;;;;;;2.00;0.57;;;;;;;;;;5002152;28;20099;-46
2023/03/19 02:21:46;;;;;;;2.97;0.57;;;;;;;;;;5008092;28;20120;-46
2023/03/19 02:24:16;;;;;;;2.53;0.40;;;;;;;;;;4994188;28;20153;-49
2023/03/19 02:26:46;;;;;;;2.92;0.40;;;;;;;;;;5003277;28;20570;-47
2023/03/19 02:29:13;;;;;;;2.97;0.40;;;;;;;;;;4986140;28;20041;-46
2023/03/19 02:31:41;;;;;;;1.83;0.22;;;;;;;;;;5010337;28;20077;-47
2023/03/19 02:34:33;;;;;;;5.53;0.40;;;;;;;;;;4994904;28;20058;-47
2023/03/19 02:37:02;;;;;;;3.80;0.38;;;;;;;;;;5001744;28;20100;-47
2023/03/19 02:39:32;;;;;;;2.45;0.20;;;;;;;;;;4999319;28;20076;-47
2023/03/19 02:42:02;;;;;;;3.13;0.30;;;;;;;;;;5002382;28;20052;-48
2023/03/19 02:44:29;;;;;;;3.63;0.40;;;;;;;;;;4997503;28;20069;-45
2023/03/19 02:46:58;;;;;;;4.50;0.50;;;;;;;;;;5004349;28;20037;-46
2023/03/19 02:49:26;;;;;;;5.18;0.40;;;;;;;;;;4998050;28;20072;-45
2023/03/19 02:51:53;;;;;;;5.05;0.47;;;;;;;;;;4997133;28;20091;-47
2023/03/19 02:54:21;;;;;;;2.63;0.20;;;;;;;;;;4994033;28;20042;-46
2023/03/19 02:56:51;;;;;;;2.70;0.25;;;;;;;;;;5004309;28;20072;-45
2023/03/19 02:59:20;;;;;;;3.17;0.50;;;;;;;;;;4996875;28;20060;-45
2023/03/19 03:01:48;;;;;;;3.72;0.40;;;;;;;;;;4985785;28;20100;-46
2023/03/19 03:04:15;;;;;;;2.35;0.30;;;;;;;;;;5001709;28;20064;-48
2023/03/19 03:06:43;;;;;;;3.05;0.50;;;;;;;;;;4997182;28;20057;-47
2023/03/19 03:09:11;;;;;;;3.20;0.30;;;;;;;;;;5006034;28;20048;-46
2023/03/19 03:11:40;;;;;;;4.73;0.40;;;;;;;;;;5005089;28;20065;-50
2023/03/19 03:14:08;;;;;;;2.80;0.40;;;;;;;;;;5006537;28;20141;-46
2023/03/19 03:16:37;;;;;;;2.58;0.30;;;;;;;;;;5000102;28;20065;-46
2023/03/19 03:19:05;;;;;;;2.80;0.40;;;;;;;;;;5008843;28;20054;-49
2023/03/19 03:21:34;;;;;;;2.03;0.30;;;;;;;;;;5004613;28;20041;-47
2023/03/19 03:24:02;;;;;;;6.00;0.57;;;;;;;;;;5009732;28;20479;-46
2023/03/19 03:26:30;;;;;;;2.75;0.30;;;;;;;;;;4985910;28;20460;-47
2023/03/19 03:28:57;;;;;;;8.90;1.25;;;;;;;;;;5022952;28;20045;-46
2023/03/19 03:31:25;;;;;;;3.92;0.30;;;;;;;;;;4999778;28;20049;-46
2023/03/19 03:33:54;;;;;;;4.50;0.32;;;;;;;;;;5001354;28;20107;-46
2023/03/19 03:36:22;;;;;;;4.63;0.30;;;;;;;;;;4999948;28;20650;-47
2023/03/19 03:38:50;;;;;;;6.45;0.60;;;;;;;;;;5013273;28;20125;-45
2023/03/19 03:41:17;;;;;;;5.13;0.43;;;;;;;;;;4989055;28;20040;-47
2023/03/19 03:43:45;;;;;;;4.60;0.60;;;;;;;;;;4994293;28;21472;-48
2023/03/19 03:46:13;;;;;;;5.15;0.43;;;;;;;;;;5004375;28;20116;-47
2023/03/19 03:51:17;;;;;;;4.38;0.38;;;;;;;;;;4915139;23;20733;-52
2023/03/19 03:54:03;;;;;;;3.55;0.50;;;;;;;;;;4962905;28;20050;-52
2023/03/19 03:56:49;;;;;;;4.57;0.40;;;;;;;;;;4986312;28;20053;-53
2023/03/19 03:59:33;;;;;;;3.60;0.38;;;;;;;;;;4985541;28;20141;-49
2023/03/19 04:02:19;;;;;;;5.23;0.50;;;;;;;;;;4985511;28;20119;-54
2023/03/19 04:05:05;;;;;;;4.40;0.73;;;;;;;;;;5008486;28;20073;-50
2023/03/19 04:08:09;;;;;;;6.90;0.50;;;;;;;;;;4983322;28;20050;-48
2023/03/19 04:11:14;;;;;;;2.95;0.30;;;;;;;;;;4986294;28;20399;-51
2023/03/19 04:14:17;;;;;;;2.78;0.40;;;;;;;;;;4990671;28;20510;-49
2023/03/19 04:17:22;;;;;;;2.30;0.23;;;;;;;;;;4969587;28;20205;-51
2023/03/19 04:20:26;;;;;;;3.25;0.35;;;;;;;;;;4981396;28;20049;-51
2023/03/19 04:23:29;;;;;;;4.85;0.50;;;;;;;;;;4984583;28;20061;-48
2023/03/19 04:26:33;;;;;;;5.75;0.47;;;;;;;;;;5003257;28;20550;-51
2023/03/19 04:29:42;;;;;;;6.10;0.50;;;;;;;;;;4984731;28;20056;-52
2023/03/19 04:32:45;;;;;;;4.00;0.40;;;;;;;;;;4994463;28;20054;-49
2023/03/19 04:35:49;;;;;;;4.10;0.43;;;;;;;;;;4994297;28;20076;-52
2023/03/19 04:38:52;;;;;;;5.88;0.50;;;;;;;;;;4984301;28;20065;-49
2023/03/19 04:41:56;;;;;;;3.22;0.60;;;;;;;;;;4952161;28;20057;-51
2023/03/19 04:45:00;;;;;;;4.95;0.57;;;;;;;;;;4983020;28;20099;-48
2023/03/19 04:48:04;;;;;;;4.90;0.60;;;;;;;;;;4992967;28;20044;-54
2023/03/19 04:51:08;;;;;;;5.72;0.60;;;;;;;;;;4972681;28;20144;-52
2023/03/19 04:54:12;;;;;;;6.95;0.90;;;;;;;;;;4978871;28;20127;-49
2023/03/19 04:57:16;;;;;;;6.47;1.38;;;;;;;;;;4954152;28;20114;-53
2023/03/19 05:00:20;;;;;;;4.43;0.50;;;;;;;;;;4984690;28;20046;-48
2023/03/19 05:03:23;;;;;;;4.97;0.60;;;;;;;;;;4979753;28;20396;-53
2023/03/19 05:06:27;;;;;;;4.65;0.35;;;;;;;;;;4970588;28;20675;-50
2023/03/19 05:09:30;;;;;;;4.43;0.50;;;;;;;;;;4974994;28;20057;-52
2023/03/19 05:12:34;;;;;;;3.90;0.52;;;;;;;;;;4957599;28;20409;-48
2023/03/19 05:15:38;;;;;;;4.03;0.55;;;;;;;;;;4999670;28;20079;-51
2023/03/19 05:18:44;;;;;;;5.80;0.77;;;;;;;;;;4987453;28;20136;-51
2023/03/19 05:21:48;;;;;;;6.30;0.70;;;;;;;;;;4991508;28;20045;-51
2023/03/19 05:24:51;;;;;;;4.65;0.80;;;;;;;;;;4987959;28;20100;-50
2023/03/19 05:27:55;;;;;;;6.47;0.50;;;;;;;;;;4979013;28;20736;-52
2023/03/19 05:30:59;;;;;;;4.60;0.30;;;;;;;;;;4975453;28;20151;-51
2023/03/19 05:34:03;;;;;;;7.83;0.60;;;;;;;;;;4982664;28;20052;-50
2023/03/19 05:37:07;;;;;;;6.80;0.73;;;;;;;;;;4982861;28;20867;-49
2023/03/19 05:40:11;;;;;;;6.82;0.77;;;;;;;;;;4984005;28;20168;-51
2023/03/19 05:43:14;;;;;;;4.30;0.47;;;;;;;;;;4986010;28;20550;-50
2023/03/19 05:46:18;;;;;;;3.95;0.40;;;;;;;;;;4964839;28;20057;-54
2023/03/19 05:49:22;;;;;;;5.00;0.70;;;;;;;;;;4987911;28;20623;-52
2023/03/19 05:52:26;;;;;;;3.53;0.82;;;;;;;;;;4987076;28;20057;-50
2023/03/19 05:55:30;;;;;;;8.27;0.82;;;;;;;;;;4985840;28;20054;-55
2023/03/19 05:58:34;;;;;;;3.15;0.40;;;;;;;;;;4985965;28;20490;-53
2023/03/19 06:01:59;;;;;;;4.50;0.75;;;;;;;;;;4995720;28;20145;-56
2023/03/19 06:05:02;;;;;;;4.83;0.53;;;;;;;;;;4994040;28;20576;-54
2023/03/19 06:08:06;;;;;;;5.10;0.70;;;;;;;;;;4989727;28;20045;-53
2023/03/19 06:11:10;;;;;;;3.42;0.47;;;;;;;;;;4980921;28;20526;-52
2023/03/19 06:14:13;;;;;;;4.20;0.38;;;;;;;;;;4978924;28;20492;-53
2023/03/19 06:17:17;;;;;;;4.95;0.60;;;;;;;;;;4954627;28;20088;-50
2023/03/19 06:20:21;;;;;;;5.43;0.67;;;;;;;;;;4976470;28;20143;-51
2023/03/19 06:23:25;;;;;;;4.88;0.90;;;;;;;;;;4967973;28;20057;-55
2023/03/19 06:26:29;;;;;;;4.47;0.50;;;;;;;;;;4999022;28;20057;-50
2023/03/19 06:29:35;;;;;;;5.68;0.57;;;;;;;;;;4982447;28;20058;-54
2023/03/19 06:32:39;;;;;;;7.07;0.70;;;;;;;;;;4985985;28;20053;-50
2023/03/19 06:35:43;;;;;;;5.77;0.70;;;;;;;;;;4980271;28;20079;-53
2023/03/19 06:38:46;;;;;;;4.70;0.63;;;;;;;;;;4983239;28;20053;-49
2023/03/19 06:41:50;;;;;;;4.13;0.47;;;;;;;;;;4984470;28;20046;-49
2023/03/19 06:44:54;;;;;;;5.72;0.63;;;;;;;;;;4966381;28;20061;-49
2023/03/19 06:47:58;;;;;;;4.22;0.63;;;;;;;;;;4966174;28;20384;-50
2023/03/19 06:51:02;;;;;;;3.53;0.60;;;;;;;;;;4946131;28;20073;-49
2023/03/19 06:54:07;;;;;;;5.15;0.73;;;;;;;;;;4988932;28;20057;-52
2023/03/19 06:57:10;;;;;;;6.22;0.80;;;;;;;;;;4989909;28;20085;-52
2023/03/19 07:00:19;;;;;;;6.28;0.60;;;;;;;;;;4990318;28;20565;-53
2023/03/19 07:03:23;;;;;;;6.22;0.50;;;;;;;;;;4993343;28;20037;-50
2023/03/19 07:06:27;;;;;;;4.47;0.50;;;;;;;;;;4998900;28;20065;-52
2023/03/19 07:09:31;;;;;;;4.07;0.30;;;;;;;;;;4984431;28;20069;-52
2023/03/19 07:12:36;;;;;;;4.70;0.88;;;;;;;;;;4988396;28;20045;-54
2023/03/19 07:15:39;;;;;;;8.10;0.47;;;;;;;;;;4970089;28;20049;-53
2023/03/19 07:18:43;;;;;;;8.30;0.70;;;;;;;;;;4962469;28;20064;-51
2023/03/19 07:21:47;;;;;;;7.63;0.80;;;;;;;;;;4963159;28;20116;-50
2023/03/19 07:24:51;;;;;;;3.97;0.50;;;;;;;;;;4975240;28;20738;-49
2023/03/19 07:27:55;;;;;;;5.85;0.40;;;;;;;;;;4975403;28;20585;-54
2023/03/19 07:30:59;;;;;;;5.22;0.50;;;;;;;;;;4971242;28;20279;-53
2023/03/19 07:34:03;;;;;;;2.92;0.35;;;;;;;;;;4983156;28;20054;-54
2023/03/19 07:37:07;;;;;;;3.37;0.20;;;;;;;;;;4987019;28;20136;-51
2023/03/19 07:40:14;;;;;;;6.35;0.60;;;;;;;;;;4994810;28;20064;-53
2023/03/19 07:43:18;;;;;;;2.55;0.20;;;;;;;;;;4990761;28;20213;-51
2023/03/19 07:46:22;;;;;;;4.20;0.65;;;;;;;;;;4986841;28;20054;-49
2023/03/19 07:49:25;;;;;;;2.22;0.25;;;;;;;;;;4987803;28;20507;-50
2023/03/19 07:52:30;;;;;;;9.17;0.50;;;;;;;;;;4990328;28;20523;-49
2023/03/19 07:55:33;;;;;;;3.50;0.40;;;;;;;;;;4988311;28;20069;-52
2023/03/19 07:58:38;;;;;;;4.25;0.40;;;;;;;;;;4973948;28;20679;-50
2023/03/19 08:01:42;;;;;;;3.97;0.85;;;;;;;;;;4984265;28;20241;-49
2023/03/19 08:04:46;;;;;;;3.55;0.55;;;;;;;;;;4993618;28;20061;-52
2023/03/19 08:07:51;;;;;;;3.50;0.60;;;;;;;;;;4976580;28;20057;-53
2023/03/19 08:10:58;;;;;;;5.15;0.50;;;;;;;;;;4987964;28;20436;-52
2023/03/19 08:14:02;;;;;;;5.45;0.50;;;;;;;;;;4993603;28;20076;-51
2023/03/19 08:17:07;;;;;;;4.13;0.70;;;;;;;;;;4987904;28;20049;-49
2023/03/19 08:20:10;;;;;;;4.15;0.50;;;;;;;;;;4984709;28;20050;-54
2023/03/19 08:23:14;;;;;;;4.03;0.50;;;;;;;;;;4978108;28;20164;-53
2023/03/19 08:26:18;;;;;;;5.00;0.60;;;;;;;;;;4976182;28;21144;-54
2023/03/19 08:29:22;;;;;;;6.85;0.75;;;;;;;;;;4999274;28;20093;-55
2023/03/19 08:32:26;;;;;;;3.53;0.43;;;;;;;;;;4970185;28;20054;-53
2023/03/19 08:35:29;;;;;;;7.97;0.70;;;;;;;;;;4992660;28;20191;-49
2023/03/19 08:38:33;;;;;;;4.20;0.60;;;;;;;;;;5001043;28;20064;-51
2023/03/19 08:41:37;;;;;;;3.47;0.50;;;;;;;;;;4991142;28;20085;-51
2023/03/19 08:44:41;;;;;;;4.85;0.30;;;;;;;;;;4984111;28;20050;-50
2023/03/19 08:47:45;;;;;;;5.65;0.57;;;;;;;;;;4989157;28;20603;-50
2023/03/19 08:50:49;;;;;;;2.60;0.40;;;;;;;;;;4978021;28;20191;-52
2023/03/19 08:53:53;;;;;;;5.10;0.30;;;;;;;;;;4948450;28;20100;-52
2023/03/19 08:56:56;;;;;;;3.45;0.20;;;;;;;;;;4971447;28;20831;-52
